Time;durP1;ratioP1;P1;durP2;ratioP2;P2;SDS_P1;SDS_P2;PMS_P1;PMS_P2;Temp;Humidity;BMP_temperature;BMP_pressure;BME280_temperature;BME280_humidity;BME280_pressure;Samples;Min_cycle;Max_cycle;Signal;HPM_P1;HPM_P2
2021/12/01 00:01:03;;;;;;;11.97;5.43;;;;;;;;;;4997555;28;20228;-78
2021/12/01 00:03:34;;;;;;;9.47;4.47;;;;;;;;;;5031341;28;20231;-78
2021/12/01 00:06:03;;;;;;;15.80;4.87;;;;;;;;;;5030039;28;20281;-77
2021/12/01 00:08:29;;;;;;;9.90;4.37;;;;;;;;;;5029582;28;20251;-78
2021/12/01 00:10:57;;;;;;;11.57;4.43;;;;;;;;;;5012735;28;20223;-77
2021/12/01 00:13:22;;;;;;;9.33;4.13;;;;;;;;;;5010234;28;20220;-78
2021/12/01 00:15:48;;;;;;;8.87;4.20;;;;;;;;;;5009230;28;20225;-78
2021/12/01 00:18:17;;;;;;;14.13;4.70;;;;;;;;;;5002521;28;20220;-78
2021/12/01 00:20:42;;;;;;;7.83;3.93;;;;;;;;;;5013617;28;20295;-77
2021/12/01 00:23:13;;;;;;;11.17;3.90;;;;;;;;;;5029725;28;20235;-77
2021/12/01 00:25:42;;;;;;;12.30;3.77;;;;;;;;;;4997884;28;20349;-78
2021/12/01 00:28:13;;;;;;;7.43;3.30;;;;;;;;;;5029552;28;20321;-78
2021/12/01 00:30:41;;;;;;;13.57;3.90;;;;;;;;;;5013623;28;20235;-78
2021/12/01 00:33:13;;;;;;;13.73;4.13;;;;;;;;;;5010052;28;20236;-78
2021/12/01 00:35:39;;;;;;;12.37;3.57;;;;;;;;;;4994731;28;20228;-78
2021/12/01 00:38:07;;;;;;;6.70;3.50;;;;;;;;;;5029540;28;20349;-78
2021/12/01 00:40:35;;;;;;;9.33;3.83;;;;;;;;;;4998167;28;20227;-78
2021/12/01 00:43:01;;;;;;;11.37;3.80;;;;;;;;;;4997040;28;20223;-78
2021/12/01 00:45:28;;;;;;;7.60;3.43;;;;;;;;;;4996655;28;20220;-77
2021/12/01 00:47:54;;;;;;;12.00;3.60;;;;;;;;;;5013441;28;20238;-77
2021/12/01 00:50:26;;;;;;;11.67;3.57;;;;;;;;;;5030575;28;20616;-78
2021/12/01 00:52:56;;;;;;;10.27;3.73;;;;;;;;;;4996787;28;20227;-78
2021/12/01 00:55:24;;;;;;;8.17;3.50;;;;;;;;;;5012838;28;20224;-78
2021/12/01 00:57:52;;;;;;;10.63;3.83;;;;;;;;;;5011124;28;20224;-76
2021/12/01 01:00:20;;;;;;;9.80;3.80;;;;;;;;;;5006260;28;20734;-77
2021/12/01 01:02:48;;;;;;;9.10;3.73;;;;;;;;;;5013819;28;20616;-78
2021/12/01 01:05:14;;;;;;;9.13;3.40;;;;;;;;;;5013121;28;20619;-77
2021/12/01 01:07:44;;;;;;;7.37;3.33;;;;;;;;;;5013385;28;20246;-77
2021/12/01 01:19:05;;;;;;;9.57;3.30;;;;;;;;;;4959227;28;20264;-78
2021/12/01 01:21:35;;;;;;;8.33;3.10;;;;;;;;;;4990244;28;20243;-78
2021/12/01 01:24:03;;;;;;;8.83;3.10;;;;;;;;;;5029359;28;20228;-78
2021/12/01 01:26:35;;;;;;;8.10;3.40;;;;;;;;;;5030624;28;20222;-78
2021/12/01 01:29:03;;;;;;;11.37;3.57;;;;;;;;;;5001302;28;20247;-78
2021/12/01 01:31:29;;;;;;;8.40;3.30;;;;;;;;;;5018426;28;20593;-78
2021/12/01 01:33:54;;;;;;;6.50;3.23;;;;;;;;;;4998716;28;20216;-78
2021/12/01 01:36:23;;;;;;;7.50;3.03;;;;;;;;;;4982805;28;20606;-78
2021/12/01 01:38:51;;;;;;;9.63;3.30;;;;;;;;;;5002127;28;20336;-78
2021/12/01 01:41:19;;;;;;;7.40;3.03;;;;;;;;;;5035200;28;20303;-79
2021/12/01 01:43:50;;;;;;;10.27;3.70;;;;;;;;;;5021607;28;20610;-79
2021/12/01 01:46:18;;;;;;;7.13;2.83;;;;;;;;;;5025483;28;20224;-78
2021/12/01 01:49:05;;;;;;;7.10;3.10;;;;;;;;;;5037260;28;20228;-79
2021/12/01 01:51:35;;;;;;;9.10;3.23;;;;;;;;;;5023875;28;20279;-78
2021/12/01 01:54:01;;;;;;;9.43;3.27;;;;;;;;;;5036525;28;20224;-79
2021/12/01 01:56:29;;;;;;;7.43;2.93;;;;;;;;;;5036058;28;20288;-79
2021/12/01 01:58:54;;;;;;;5.97;3.37;;;;;;;;;;5004092;28;20255;-79
2021/12/01 02:03:58;;;;;;;7.17;3.13;;;;;;;;;;5036037;28;20724;-79
2021/12/01 02:06:26;;;;;;;6.80;3.13;;;;;;;;;;5036101;28;20220;-79
2021/12/01 02:08:57;;;;;;;5.53;3.10;;;;;;;;;;5037190;28;20236;-80
2021/12/01 02:11:23;;;;;;;5.03;3.53;;;;;;;;;;5036381;28;20228;-79
2021/12/01 02:13:48;;;;;;;4.57;3.13;;;;;;;;;;5020453;28;20220;-79
2021/12/01 02:16:14;;;;;;;7.50;3.50;;;;;;;;;;5016534;28;20229;-79
2021/12/01 02:18:43;;;;;;;3.87;3.10;;;;;;;;;;5000835;28;20220;-79
2021/12/01 02:21:14;;;;;;;6.23;3.80;;;;;;;;;;5016218;28;20247;-78
2021/12/01 02:23:44;;;;;;;8.00;3.60;;;;;;;;;;5044467;28;20234;-78
2021/12/01 02:26:12;;;;;;;4.53;3.50;;;;;;;;;;5035441;28;20254;-78
2021/12/01 02:28:41;;;;;;;5.07;3.30;;;;;;;;;;5005140;28;20216;-79
2021/12/01 02:31:09;;;;;;;0.03;0.03;;;;;;;;;;5036142;28;20277;-79
2021/12/01 02:33:37;;;;;;;0.00;0.00;;;;;;;;;;5020094;28;20266;-79
2021/12/01 02:36:03;;;;;;;0.20;0.20;;;;;;;;;;5018748;28;20733;-79
2021/12/01 02:38:28;;;;;;;0.30;0.30;;;;;;;;;;5003306;28;20230;-78
2021/12/01 02:40:54;;;;;;;0.00;0.00;;;;;;;;;;5036365;28;20227;-78
2021/12/01 02:43:23;;;;;;;0.10;0.10;;;;;;;;;;5035667;28;20260;-79
2021/12/01 02:45:53;;;;;;;0.33;0.33;;;;;;;;;;5005105;28;20618;-78
2021/12/01 02:48:19;;;;;;;0.10;0.10;;;;;;;;;;5014697;28;20296;-79
2021/12/01 02:50:49;;;;;;;0.00;0.00;;;;;;;;;;5025149;28;20211;-79
2021/12/01 02:53:17;;;;;;;0.00;0.00;;;;;;;;;;5018458;28;20223;-79
2021/12/01 02:56:00;;;;;;;0.33;0.33;;;;;;;;;;5034685;28;20224;-79
2021/12/01 02:58:31;;;;;;;0.10;0.10;;;;;;;;;;5001379;28;20403;-79
2021/12/01 03:01:01;;;;;;;0.00;0.00;;;;;;;;;;5015279;28;20258;-76
2021/12/01 03:03:27;;;;;;;0.00;0.00;;;;;;;;;;5014962;28;20746;-79
2021/12/01 03:05:57;;;;;;;0.00;0.00;;;;;;;;;;5014267;28;20224;-79
2021/12/01 03:08:23;;;;;;;0.00;0.00;;;;;;;;;;4983575;28;20240;-79
2021/12/01 03:10:52;;;;;;;0.10;0.10;;;;;;;;;;4988450;28;20232;-78
2021/12/01 03:13:21;;;;;;;0.20;0.20;;;;;;;;;;5015049;28;20227;-79
2021/12/01 03:15:52;;;;;;;0.00;0.00;;;;;;;;;;5004254;28;20952;-78
2021/12/01 03:18:17;;;;;;;0.00;0.00;;;;;;;;;;5036117;28;20306;-78
2021/12/01 03:20:47;;;;;;;0.10;0.10;;;;;;;;;;5001317;28;20244;-79
2021/12/01 03:23:18;;;;;;;0.00;0.00;;;;;;;;;;4985791;28;20216;-79
2021/12/01 03:25:43;;;;;;;0.10;0.10;;;;;;;;;;5005527;28;20220;-79
2021/12/01 03:28:14;;;;;;;0.10;0.10;;;;;;;;;;5037629;28;20239;-78
2021/12/01 03:30:39;;;;;;;0.30;0.30;;;;;;;;;;5019783;28;20296;-79
2021/12/01 03:33:11;;;;;;;0.10;0.10;;;;;;;;;;5036849;28;20254;-79
2021/12/01 03:35:43;;;;;;;0.10;0.10;;;;;;;;;;5021404;28;20275;-79
2021/12/01 03:38:13;;;;;;;0.00;0.00;;;;;;;;;;4988396;28;20231;-79
2021/12/01 03:40:39;;;;;;;0.10;0.10;;;;;;;;;;5021077;28;20223;-79
2021/12/01 03:43:12;;;;;;;0.00;0.00;;;;;;;;;;5018012;28;20224;-79
2021/12/01 03:45:40;;;;;;;0.00;0.00;;;;;;;;;;5000620;28;20711;-79
2021/12/01 03:48:08;;;;;;;0.10;0.10;;;;;;;;;;5034419;28;20306;-79
2021/12/01 03:50:34;;;;;;;0.10;0.10;;;;;;;;;;5000209;28;20212;-79
2021/12/01 03:53:02;;;;;;;0.00;0.00;;;;;;;;;;5017488;28;20303;-79
2021/12/01 03:55:30;;;;;;;0.10;0.10;;;;;;;;;;5033458;28;20281;-79
2021/12/01 03:57:58;;;;;;;0.20;0.20;;;;;;;;;;5033953;28;20293;-79
2021/12/01 04:00:26;;;;;;;0.00;0.00;;;;;;;;;;4986208;28;20278;-79
2021/12/01 04:02:52;;;;;;;0.00;0.00;;;;;;;;;;5034849;28;20244;-80
2021/12/01 04:05:20;;;;;;;0.00;0.00;;;;;;;;;;5000674;28;20228;-79
2021/12/01 04:07:48;;;;;;;0.00;0.00;;;;;;;;;;5035404;28;20219;-79
2021/12/01 04:10:19;;;;;;;0.00;0.00;;;;;;;;;;5034041;28;20221;-79
2021/12/01 04:12:49;;;;;;;0.03;0.03;;;;;;;;;;5002334;28;20273;-79
2021/12/01 04:15:17;;;;;;;0.20;0.20;;;;;;;;;;5017962;28;20223;-79
2021/12/01 04:17:45;;;;;;;0.10;0.10;;;;;;;;;;5018210;28;20246;-79
2021/12/01 04:20:17;;;;;;;0.33;0.33;;;;;;;;;;5037267;28;20220;-81
2021/12/01 04:22:43;;;;;;;0.00;0.00;;;;;;;;;;5034959;28;20230;-79
2021/12/01 04:25:11;;;;;;;0.00;0.00;;;;;;;;;;5034195;28;20243;-79
2021/12/01 04:27:38;;;;;;;0.00;0.00;;;;;;;;;;5033371;28;20658;-78
2021/12/01 04:30:04;;;;;;;0.00;0.00;;;;;;;;;;5030522;28;20249;-78
2021/12/01 04:32:33;;;;;;;0.03;0.03;;;;;;;;;;4996545;28;20319;-79
2021/12/01 04:35:01;;;;;;;0.07;0.07;;;;;;;;;;4981252;28;20220;-78
2021/12/01 04:37:29;;;;;;;0.10;0.10;;;;;;;;;;4971916;28;20328;-78
2021/12/01 04:40:00;;;;;;;0.00;0.00;;;;;;;;;;4998983;28;20256;-78
2021/12/01 04:42:25;;;;;;;0.00;0.00;;;;;;;;;;4996676;28;20205;-78
2021/12/01 04:44:53;;;;;;;0.00;0.00;;;;;;;;;;5013442;28;20573;-79
2021/12/01 04:47:37;;;;;;;0.10;0.10;;;;;;;;;;5020735;28;20242;-79
2021/12/01 04:50:03;;;;;;;0.00;0.00;;;;;;;;;;5033943;28;20220;-79
2021/12/01 04:52:31;;;;;;;0.00;0.00;;;;;;;;;;5018058;28;20223;-79
2021/12/01 04:54:59;;;;;;;0.30;0.30;;;;;;;;;;5033716;28;20231;-79
2021/12/01 04:57:24;;;;;;;0.10;0.10;;;;;;;;;;5000720;28;20212;-79
2021/12/01 04:59:52;;;;;;;0.10;0.10;;;;;;;;;;5005482;28;20615;-77
2021/12/01 05:02:18;;;;;;;0.10;0.10;;;;;;;;;;4983763;28;20281;-80
2021/12/01 05:04:44;;;;;;;0.00;0.00;;;;;;;;;;5018053;28;20221;-79
2021/12/01 05:07:10;;;;;;;0.00;0.00;;;;;;;;;;5004726;28;20235;-80
2021/12/01 05:09:35;;;;;;;0.10;0.10;;;;;;;;;;5021181;28;20228;-79
2021/12/01 05:12:09;;;;;;;0.10;0.10;;;;;;;;;;5005362;28;20307;-79
2021/12/01 05:14:38;;;;;;;0.10;0.10;;;;;;;;;;5021631;28;20277;-78
2021/12/01 05:17:03;;;;;;;0.00;0.00;;;;;;;;;;5023838;28;20280;-80
2021/12/01 05:19:32;;;;;;;0.00;0.00;;;;;;;;;;5020718;28;20257;-79
2021/12/01 05:22:00;;;;;;;0.10;0.10;;;;;;;;;;5005147;28;20238;-79
2021/12/01 05:24:26;;;;;;;0.10;0.10;;;;;;;;;;5016584;28;20229;-79
2021/12/01 05:26:54;;;;;;;0.20;0.20;;;;;;;;;;5020109;28;20231;-79
2021/12/01 05:29:21;;;;;;;0.00;0.00;;;;;;;;;;4987703;28;20211;-79
2021/12/01 05:31:48;;;;;;;0.10;0.10;;;;;;;;;;5038396;28;20220;-79
2021/12/01 05:34:13;;;;;;;0.10;0.10;;;;;;;;;;5035172;28;20231;-79
2021/12/01 05:36:39;;;;;;;0.10;0.10;;;;;;;;;;5020025;28;20611;-79
2021/12/01 05:39:07;;;;;;;0.10;0.10;;;;;;;;;;5019580;28;20281;-78
2021/12/01 05:41:35;;;;;;;0.10;0.10;;;;;;;;;;5004718;28;20219;-79
2021/12/01 05:44:03;;;;;;;0.00;0.00;;;;;;;;;;5036889;28;20238;-78
2021/12/01 05:46:29;;;;;;;0.00;0.00;;;;;;;;;;5004615;28;20781;-79
2021/12/01 05:48:57;;;;;;;0.10;0.10;;;;;;;;;;5019724;28;20233;-78
2021/12/01 05:51:27;;;;;;;0.00;0.00;;;;;;;;;;5019563;28;20235;-79
2021/12/01 05:53:55;;;;;;;0.00;0.00;;;;;;;;;;5018319;28;20251;-78
2021/12/01 05:56:23;;;;;;;0.00;0.00;;;;;;;;;;5002223;28;20212;-78
2021/12/01 05:58:49;;;;;;;0.00;0.00;;;;;;;;;;5002036;28;20227;-78
2021/12/01 06:01:15;;;;;;;0.00;0.00;;;;;;;;;;5034983;28;20220;-78
2021/12/01 06:03:40;;;;;;;0.23;0.23;;;;;;;;;;5012377;28;20220;-79
2021/12/01 06:06:06;;;;;;;0.10;0.10;;;;;;;;;;5015832;28;20614;-78
2021/12/01 06:08:32;;;;;;;0.00;0.00;;;;;;;;;;5016813;28;20314;-79
2021/12/01 06:10:58;;;;;;;0.00;0.00;;;;;;;;;;4996255;28;20274;-78
2021/12/01 06:13:27;;;;;;;0.40;0.40;;;;;;;;;;4990205;28;20229;-79
2021/12/01 06:15:55;;;;;;;0.00;0.00;;;;;;;;;;5018766;28;20226;-78
2021/12/01 06:18:21;;;;;;;0.17;0.17;;;;;;;;;;5033755;28;20581;-78
2021/12/01 06:20:49;;;;;;;0.07;0.07;;;;;;;;;;5028301;28;20221;-78
2021/12/01 06:23:17;;;;;;;0.00;0.00;;;;;;;;;;5003218;28;20228;-78
2021/12/01 06:25:45;;;;;;;0.10;0.10;;;;;;;;;;5001575;28;20238;-78
2021/12/01 06:28:10;;;;;;;0.00;0.00;;;;;;;;;;5001008;28;20709;-78
2021/12/01 06:30:36;;;;;;;0.00;0.00;;;;;;;;;;4997565;28;20298;-77
2021/12/01 06:33:02;;;;;;;0.00;0.00;;;;;;;;;;4991196;28;20213;-76
2021/12/01 06:35:28;;;;;;;0.10;0.10;;;;;;;;;;5016124;28;20236;-78
2021/12/01 06:37:56;;;;;;;0.00;0.00;;;;;;;;;;5017127;28;20224;-77
2021/12/01 06:40:24;;;;;;;0.00;0.00;;;;;;;;;;4997584;28;20235;-78
2021/12/01 06:42:55;;;;;;;0.00;0.00;;;;;;;;;;4982071;28;20284;-77
2021/12/01 06:45:21;;;;;;;0.00;0.00;;;;;;;;;;5011594;28;20228;-78
2021/12/01 06:47:47;;;;;;;0.00;0.00;;;;;;;;;;5034837;28;20216;-78
2021/12/01 06:50:15;;;;;;;0.10;0.10;;;;;;;;;;5001455;28;20615;-78
2021/12/01 06:52:41;;;;;;;0.13;0.13;;;;;;;;;;5029355;28;20208;-75
2021/12/01 06:55:07;;;;;;;0.07;0.07;;;;;;;;;;5020202;28;20284;-78
2021/12/01 06:57:33;;;;;;;0.00;0.00;;;;;;;;;;5015387;28;20710;-79
2021/12/01 06:59:59;;;;;;;0.20;0.20;;;;;;;;;;4995748;28;20232;-78
2021/12/01 07:02:27;;;;;;;0.00;0.00;;;;;;;;;;4997687;28;20228;-78
2021/12/01 07:04:55;;;;;;;0.10;0.10;;;;;;;;;;4995809;28;20771;-79
2021/12/01 07:10:36;;;;;;;0.10;0.10;;;;;;;;;;5025178;28;20313;-77
2021/12/01 07:13:02;;;;;;;0.13;0.13;;;;;;;;;;5006175;28;20237;-76
2021/12/01 07:15:31;;;;;;;0.00;0.00;;;;;;;;;;5009667;28;20221;-76
2021/12/01 07:17:59;;;;;;;0.00;0.00;;;;;;;;;;4978824;28;20225;-77
2021/12/01 07:20:27;;;;;;;0.00;0.00;;;;;;;;;;4977729;28;20217;-76
2021/12/01 07:22:55;;;;;;;0.10;0.10;;;;;;;;;;5026930;28;20237;-75
2021/12/01 07:25:23;;;;;;;0.10;0.10;;;;;;;;;;5003282;28;20319;-76
2021/12/01 07:27:53;;;;;;;0.00;0.00;;;;;;;;;;4998747;28;20228;-76
2021/12/01 07:30:24;;;;;;;0.00;0.00;;;;;;;;;;5015310;28;20277;-75
2021/12/01 07:32:50;;;;;;;0.20;0.20;;;;;;;;;;5030519;28;20223;-76
2021/12/01 07:35:16;;;;;;;0.00;0.00;;;;;;;;;;4993996;28;20230;-76
2021/12/01 07:37:42;;;;;;;0.73;0.73;;;;;;;;;;5027154;28;20244;-75
2021/12/01 07:40:08;;;;;;;0.00;0.00;;;;;;;;;;4981584;28;20250;-75
2021/12/01 07:42:34;;;;;;;0.03;0.03;;;;;;;;;;5030353;28;20228;-76
2021/12/01 07:45:06;;;;;;;0.30;0.30;;;;;;;;;;5032431;28;20220;-77
2021/12/01 07:47:33;;;;;;;0.00;0.00;;;;;;;;;;5014254;28;20224;-76
2021/12/01 07:49:59;;;;;;;0.10;0.10;;;;;;;;;;5031585;28;20223;-77
2021/12/01 07:52:28;;;;;;;0.20;0.20;;;;;;;;;;5013924;28;20582;-76
2021/12/01 07:54:56;;;;;;;0.10;0.10;;;;;;;;;;5013561;28;20247;-77
2021/12/01 07:57:27;;;;;;;0.10;0.10;;;;;;;;;;5010174;28;20216;-77
2021/12/01 07:59:53;;;;;;;0.10;0.10;;;;;;;;;;5008136;28;20243;-76
2021/12/01 08:02:21;;;;;;;0.10;0.10;;;;;;;;;;5029644;28;20736;-75
2021/12/01 08:04:51;;;;;;;0.10;0.10;;;;;;;;;;5013973;28;20246;-76
2021/12/01 08:07:22;;;;;;;0.10;0.10;;;;;;;;;;5029600;28;20220;-75
2021/12/01 08:09:48;;;;;;;0.10;0.10;;;;;;;;;;5014313;28;20257;-75
2021/12/01 08:12:13;;;;;;;0.00;0.00;;;;;;;;;;5012679;28;20220;-75
2021/12/01 08:14:39;;;;;;;2.47;1.23;;;;;;;;;;4997103;28;20212;-77
2021/12/01 08:17:07;;;;;;;0.10;0.10;;;;;;;;;;5009232;28;20275;-75
2021/12/01 08:19:32;;;;;;;0.00;0.00;;;;;;;;;;5010329;28;20294;-76
2021/12/01 08:22:03;;;;;;;0.00;0.00;;;;;;;;;;4992450;28;20232;-75
2021/12/01 08:24:32;;;;;;;0.00;0.00;;;;;;;;;;5029234;28;20315;-76
2021/12/01 08:26:57;;;;;;;0.10;0.10;;;;;;;;;;4995132;28;20217;-77
2021/12/01 08:29:23;;;;;;;0.00;0.00;;;;;;;;;;4996265;28;20270;-76
2021/12/01 08:31:49;;;;;;;0.10;0.10;;;;;;;;;;4980459;28;20215;-76
2021/12/01 08:34:14;;;;;;;0.00;0.00;;;;;;;;;;5029377;28;20220;-76
2021/12/01 08:36:40;;;;;;;0.10;0.10;;;;;;;;;;5029211;28;20596;-75
2021/12/01 08:39:06;;;;;;;0.07;0.07;;;;;;;;;;4980209;28;20657;-75
2021/12/01 08:41:34;;;;;;;0.10;0.10;;;;;;;;;;4990991;28;20216;-75
2021/12/01 08:44:00;;;;;;;0.10;0.10;;;;;;;;;;4993068;28;20228;-75
2021/12/01 08:46:25;;;;;;;0.00;0.00;;;;;;;;;;4983561;28;20294;-76
2021/12/01 08:48:53;;;;;;;0.20;0.20;;;;;;;;;;5012581;28;20220;-77
2021/12/01 08:51:21;;;;;;;0.00;0.00;;;;;;;;;;5029186;28;20223;-76
2021/12/01 08:53:47;;;;;;;0.10;0.10;;;;;;;;;;4980725;28;20217;-75
2021/12/01 08:56:13;;;;;;;0.10;0.10;;;;;;;;;;5009978;28;20756;-76
2021/12/01 08:58:40;;;;;;;0.10;0.10;;;;;;;;;;4993548;28;20714;-76
2021/12/01 09:01:08;;;;;;;0.10;0.10;;;;;;;;;;4996262;28;20227;-77
2021/12/01 09:03:33;;;;;;;0.00;0.00;;;;;;;;;;5013174;28;20224;-77
2021/12/01 09:05:59;;;;;;;0.10;0.10;;;;;;;;;;4996409;28;20593;-76
2021/12/01 09:08:28;;;;;;;0.00;0.00;;;;;;;;;;5028968;28;20220;-76
2021/12/01 09:10:58;;;;;;;0.00;0.00;;;;;;;;;;5029583;28;20615;-76
2021/12/01 09:13:27;;;;;;;0.10;0.10;;;;;;;;;;4993425;28;20609;-76
2021/12/01 09:15:53;;;;;;;0.00;0.00;;;;;;;;;;4977736;28;20219;-76
2021/12/01 09:18:21;;;;;;;0.10;0.10;;;;;;;;;;4994991;28;20277;-75
2021/12/01 09:20:52;;;;;;;0.10;0.10;;;;;;;;;;5022134;28;20240;-76
2021/12/01 09:23:18;;;;;;;0.47;0.47;;;;;;;;;;5031913;28;20226;-77
2021/12/01 09:25:46;;;;;;;0.03;0.03;;;;;;;;;;5043478;28;20223;-76
2021/12/01 09:28:16;;;;;;;0.30;0.30;;;;;;;;;;5039118;28;20311;-76
2021/12/01 09:30:41;;;;;;;0.00;0.00;;;;;;;;;;5040293;28;20227;-76
2021/12/01 09:33:07;;;;;;;0.00;0.00;;;;;;;;;;5019615;28;20749;-76
2021/12/01 09:35:37;;;;;;;0.00;0.00;;;;;;;;;;5031279;28;20716;-75
2021/12/01 09:38:05;;;;;;;0.23;0.13;;;;;;;;;;5030305;28;20885;-76
2021/12/01 09:40:34;;;;;;;0.00;0.00;;;;;;;;;;5014710;28;20600;-74
2021/12/01 09:42:59;;;;;;;0.20;0.20;;;;;;;;;;5013545;28;20228;-75
2021/12/01 09:45:25;;;;;;;0.00;0.00;;;;;;;;;;4996679;28;20763;-75
2021/12/01 09:47:54;;;;;;;0.10;0.10;;;;;;;;;;5029801;28;20239;-75
2021/12/01 09:50:23;;;;;;;0.00;0.00;;;;;;;;;;5016385;28;20224;-75
2021/12/01 09:52:48;;;;;;;0.00;0.00;;;;;;;;;;5001397;28;20212;-76
2021/12/01 09:55:15;;;;;;;0.20;0.20;;;;;;;;;;4999195;28;20596;-75
2021/12/01 09:57:56;;;;;;;0.83;0.50;;;;;;;;;;5032528;28;20239;-74
2021/12/01 10:00:22;;;;;;;0.00;0.00;;;;;;;;;;5025316;28;20334;-75
2021/12/01 10:02:48;;;;;;;0.20;0.20;;;;;;;;;;5032814;28;20750;-75
2021/12/01 10:05:52;;;;;;;0.00;0.00;;;;;;;;;;5031908;28;20224;-76
2021/12/01 10:08:25;;;;;;;0.10;0.10;;;;;;;;;;5020677;28;20750;-76
2021/12/01 10:10:56;;;;;;;0.10;0.10;;;;;;;;;;5013098;28;20275;-75
2021/12/01 10:13:29;;;;;;;1.10;1.00;;;;;;;;;;5007247;28;20295;-76
2021/12/01 10:15:56;;;;;;;1.27;1.17;;;;;;;;;;5015299;28;20227;-75
2021/12/01 10:18:22;;;;;;;1.50;1.23;;;;;;;;;;5011121;28;25075;-74
2021/12/01 10:21:07;;;;;;;1.50;1.40;;;;;;;;;;4979869;28;20590;-75
2021/12/01 10:23:40;;;;;;;2.23;1.80;;;;;;;;;;4988314;28;20225;-76
2021/12/01 10:26:12;;;;;;;3.23;2.37;;;;;;;;;;4996141;28;20217;-76
2021/12/01 10:28:49;;;;;;;1.47;1.37;;;;;;;;;;5007546;28;20235;-75
2021/12/01 10:31:49;;;;;;;1.47;1.37;;;;;;;;;;4992592;28;20251;-76
2021/12/01 10:34:33;;;;;;;2.20;1.30;;;;;;;;;;5017204;28;20228;-75
2021/12/01 10:37:25;;;;;;;1.30;1.10;;;;;;;;;;5014863;28;20307;-77
2021/12/01 10:40:15;;;;;;;1.83;1.50;;;;;;;;;;4996529;28;20304;-77
2021/12/01 10:43:04;;;;;;;1.57;1.47;;;;;;;;;;5029527;28;20216;-76
2021/12/01 10:45:31;;;;;;;1.70;1.33;;;;;;;;;;5015006;28;20223;-76
2021/12/01 10:47:57;;;;;;;1.33;1.23;;;;;;;;;;4997234;28;20315;-75
2021/12/01 10:50:27;;;;;;;1.33;1.30;;;;;;;;;;5014214;28;20213;-75
2021/12/01 10:53:00;;;;;;;3.67;1.87;;;;;;;;;;4997243;28;20236;-75
2021/12/01 10:55:33;;;;;;;1.50;1.40;;;;;;;;;;5014310;28;20220;-77
2021/12/01 10:58:08;;;;;;;1.50;1.40;;;;;;;;;;4997447;28;20231;-77
2021/12/01 11:00:43;;;;;;;1.67;1.57;;;;;;;;;;5014561;28;20212;-77
2021/12/01 11:03:16;;;;;;;1.77;1.60;;;;;;;;;;4998282;28;20230;-77
2021/12/01 11:05:45;;;;;;;2.03;1.40;;;;;;;;;;5015603;28;20221;-76
2021/12/01 11:08:21;;;;;;;1.37;1.30;;;;;;;;;;4998232;28;20241;-77
2021/12/01 11:10:51;;;;;;;1.70;1.43;;;;;;;;;;5031140;28;20222;-77
2021/12/01 11:13:18;;;;;;;1.40;1.30;;;;;;;;;;5013584;28;20764;-77
2021/12/01 11:15:45;;;;;;;1.03;1.03;;;;;;;;;;5030814;28;20220;-77
2021/12/01 11:18:17;;;;;;;1.40;1.20;;;;;;;;;;5014292;28;20224;-77
2021/12/01 11:20:48;;;;;;;1.80;1.70;;;;;;;;;;5014665;28;20234;-77
2021/12/01 11:23:27;;;;;;;1.60;1.50;;;;;;;;;;5030555;28;20248;-76
2021/12/01 11:26:11;;;;;;;2.27;1.97;;;;;;;;;;4983752;28;20215;-76
2021/12/01 11:28:48;;;;;;;3.90;1.10;;;;;;;;;;5030172;28;20220;-76
2021/12/01 11:31:23;;;;;;;2.10;1.20;;;;;;;;;;5018331;28;20212;-77
2021/12/01 11:33:52;;;;;;;1.00;1.00;;;;;;;;;;5017659;28;20254;-76
2021/12/01 11:36:19;;;;;;;1.07;1.07;;;;;;;;;;5010200;28;20292;-76
2021/12/01 11:38:49;;;;;;;1.57;0.80;;;;;;;;;;4995590;28;20294;-78
2021/12/01 11:41:18;;;;;;;1.00;1.00;;;;;;;;;;4989539;28;20227;-77
2021/12/01 11:43:43;;;;;;;1.00;1.00;;;;;;;;;;5023053;28;20790;-77
2021/12/01 11:46:12;;;;;;;0.90;0.90;;;;;;;;;;5038716;28;20220;-76
2021/12/01 11:48:40;;;;;;;0.90;0.90;;;;;;;;;;5037514;28;20220;-76
2021/12/01 11:51:22;;;;;;;2.23;0.90;;;;;;;;;;5006101;28;20235;-77
2021/12/01 11:53:51;;;;;;;1.00;1.00;;;;;;;;;;5020734;28;20705;-75
2021/12/01 11:56:29;;;;;;;1.00;1.00;;;;;;;;;;5007321;28;20224;-75
2021/12/01 11:59:21;;;;;;;1.83;1.10;;;;;;;;;;5030253;28;20235;-75
2021/12/01 12:01:57;;;;;;;1.17;1.00;;;;;;;;;;5031155;28;20212;-77
2021/12/01 12:04:24;;;;;;;1.10;1.00;;;;;;;;;;5008457;28;20608;-75
2021/12/01 12:06:57;;;;;;;0.93;0.90;;;;;;;;;;5007227;28;20235;-76
2021/12/01 12:09:25;;;;;;;2.20;1.27;;;;;;;;;;5024851;28;20712;-76
2021/12/01 12:12:00;;;;;;;1.00;1.00;;;;;;;;;;4994489;28;20710;-76
2021/12/01 12:14:29;;;;;;;1.03;1.00;;;;;;;;;;4995157;28;20307;-76
2021/12/01 12:17:12;;;;;;;0.93;0.93;;;;;;;;;;5010811;28;20235;-76
2021/12/01 12:19:44;;;;;;;1.00;1.00;;;;;;;;;;5013108;28;20295;-75
2021/12/01 12:22:13;;;;;;;1.43;1.10;;;;;;;;;;5029550;28;20753;-75
2021/12/01 12:24:44;;;;;;;1.00;0.83;;;;;;;;;;4995642;28;20231;-75
2021/12/01 12:27:46;;;;;;;0.80;0.80;;;;;;;;;;5004445;28;20240;-75
2021/12/01 12:30:36;;;;;;;1.30;1.20;;;;;;;;;;4969092;28;20690;-77
2021/12/01 12:33:16;;;;;;;0.70;0.70;;;;;;;;;;5033496;28;20219;-77
2021/12/01 12:35:45;;;;;;;1.10;0.83;;;;;;;;;;5031280;28;20262;-78
2021/12/01 12:38:12;;;;;;;0.90;0.90;;;;;;;;;;5030304;28;20717;-77
2021/12/01 12:40:40;;;;;;;1.37;1.27;;;;;;;;;;5028325;28;20252;-77
2021/12/01 12:43:21;;;;;;;1.63;1.53;;;;;;;;;;4998531;28;20281;-77
2021/12/01 12:46:12;;;;;;;1.20;1.10;;;;;;;;;;5003462;28;20221;-78
2021/12/01 12:48:44;;;;;;;1.17;1.10;;;;;;;;;;4996646;28;20883;-77
2021/12/01 12:51:31;;;;;;;1.40;1.30;;;;;;;;;;4992780;28;20227;-78
2021/12/01 12:53:59;;;;;;;0.97;0.97;;;;;;;;;;5029934;28;20220;-77
2021/12/01 12:56:28;;;;;;;0.90;0.90;;;;;;;;;;5030013;28;20235;-77
2021/12/01 12:59:23;;;;;;;1.00;1.00;;;;;;;;;;5014617;28;20254;-77
2021/12/01 13:02:10;;;;;;;1.10;0.90;;;;;;;;;;5011175;28;20255;-77
2021/12/01 13:04:52;;;;;;;0.70;0.70;;;;;;;;;;5015423;28;20238;-75
2021/12/01 13:07:33;;;;;;;0.80;0.80;;;;;;;;;;5006489;28;20222;-77
2021/12/01 13:10:06;;;;;;;0.60;0.60;;;;;;;;;;5027505;28;20228;-76
2021/12/01 13:12:57;;;;;;;1.10;1.00;;;;;;;;;;5013141;28;20215;-77
2021/12/01 13:15:33;;;;;;;0.70;0.47;;;;;;;;;;5030136;28;20226;-77
2021/12/01 13:18:18;;;;;;;0.60;0.60;;;;;;;;;;5012498;28;20235;-75
2021/12/01 13:20:47;;;;;;;1.07;0.70;;;;;;;;;;5029925;28;20298;-75
2021/12/01 13:23:34;;;;;;;0.73;0.70;;;;;;;;;;5014374;28;20224;-76
2021/12/01 13:26:13;;;;;;;0.83;0.80;;;;;;;;;;4988617;28;20270;-76
2021/12/01 13:28:42;;;;;;;1.60;1.03;;;;;;;;;;5018210;28;20231;-76
2021/12/01 13:31:28;;;;;;;2.90;0.80;;;;;;;;;;5030908;28;20284;-75
2021/12/01 13:34:06;;;;;;;0.67;0.50;;;;;;;;;;5031100;28;20278;-78
2021/12/01 13:36:35;;;;;;;1.43;0.50;;;;;;;;;;5028701;28;20231;-78
2021/12/01 13:39:10;;;;;;;1.43;0.60;;;;;;;;;;5029860;28;20225;-77
2021/12/01 13:41:41;;;;;;;1.00;0.67;;;;;;;;;;5017196;28;20251;-77
2021/12/01 13:44:17;;;;;;;2.30;0.80;;;;;;;;;;5035095;28;20286;-78
2021/12/01 13:46:48;;;;;;;1.10;0.60;;;;;;;;;;5021863;28;20322;-79
2021/12/01 13:49:17;;;;;;;1.27;0.83;;;;;;;;;;5002834;28;20236;-79
2021/12/01 13:51:47;;;;;;;1.73;0.70;;;;;;;;;;5006694;28;20235;-79
2021/12/01 13:54:23;;;;;;;1.63;0.77;;;;;;;;;;5019979;28;20204;-80
2021/12/01 13:57:00;;;;;;;3.63;1.50;;;;;;;;;;5021698;28;20219;-80
2021/12/01 13:59:45;;;;;;;2.60;0.97;;;;;;;;;;5000336;28;20258;-81
2021/12/01 14:02:13;;;;;;;0.60;0.60;;;;;;;;;;5012782;28;20693;-81
2021/12/01 14:04:39;;;;;;;0.50;0.50;;;;;;;;;;5037014;28;20251;-80
2021/12/01 14:07:07;;;;;;;2.40;0.70;;;;;;;;;;5002571;28;20351;-79
2021/12/01 14:09:57;;;;;;;2.37;0.67;;;;;;;;;;5001389;28;20335;-79
2021/12/01 14:12:30;;;;;;;0.97;0.63;;;;;;;;;;5028746;28;20247;-80
2021/12/01 14:14:59;;;;;;;1.60;0.80;;;;;;;;;;5021457;28;20307;-80
2021/12/01 14:17:27;;;;;;;2.03;0.90;;;;;;;;;;5036184;28;20227;-80
2021/12/01 14:19:58;;;;;;;2.07;0.67;;;;;;;;;;5004693;28;20228;-81
2021/12/01 14:22:24;;;;;;;2.57;0.80;;;;;;;;;;5020483;28;20220;-81
2021/12/01 14:24:54;;;;;;;1.87;0.87;;;;;;;;;;5020527;28;20228;-81
2021/12/01 14:27:26;;;;;;;1.97;0.90;;;;;;;;;;5020644;28;22666;-79
2021/12/01 14:29:54;;;;;;;1.17;0.60;;;;;;;;;;5020596;28;20255;-79
2021/12/01 14:32:23;;;;;;;2.17;0.90;;;;;;;;;;5017605;28;20228;-79
2021/12/01 14:34:53;;;;;;;2.73;1.10;;;;;;;;;;5017567;28;20750;-79
2021/12/01 14:37:21;;;;;;;2.63;0.77;;;;;;;;;;4985548;28;20248;-79
2021/12/01 14:39:47;;;;;;;1.77;0.70;;;;;;;;;;5006678;28;20227;-79
2021/12/01 14:42:23;;;;;;;2.40;0.83;;;;;;;;;;5047661;28;20220;-81
2021/12/01 14:44:48;;;;;;;3.87;0.80;;;;;;;;;;5029406;28;20227;-80
2021/12/01 14:47:15;;;;;;;5.23;0.90;;;;;;;;;;5048930;28;20299;-80
2021/12/01 14:49:49;;;;;;;2.20;0.80;;;;;;;;;;5019630;28;20220;-80
2021/12/01 14:52:21;;;;;;;1.40;0.80;;;;;;;;;;5014416;28;20243;-80
2021/12/01 14:54:54;;;;;;;2.07;0.70;;;;;;;;;;5017632;28;20213;-79
2021/12/01 14:57:22;;;;;;;2.10;0.80;;;;;;;;;;5019723;28;20220;-79
2021/12/01 14:59:54;;;;;;;3.63;1.10;;;;;;;;;;5013357;28;20252;-79
2021/12/01 15:02:29;;;;;;;5.70;1.07;;;;;;;;;;5017519;28;20935;-81
2021/12/01 15:05:10;;;;;;;5.17;1.40;;;;;;;;;;4984631;28;20264;-80
2021/12/01 15:07:55;;;;;;;2.07;0.70;;;;;;;;;;5021950;28;20234;-80
2021/12/01 15:10:27;;;;;;;2.60;1.00;;;;;;;;;;5019450;28;20585;-79
2021/12/01 15:13:00;;;;;;;2.60;1.20;;;;;;;;;;5037610;28;20647;-79
2021/12/01 15:15:27;;;;;;;2.87;1.00;;;;;;;;;;5004632;28;20227;-78